Time;durP1;ratioP1;P1;durP2;ratioP2;P2;SDS_P1;SDS_P2;PMS_P1;PMS_P2;Temp;Humidity;BMP_temperature;BMP_pressure;BME280_temperature;BME280_humidity;BME280_pressure;Samples;Min_cycle;Max_cycle;Signal;HPM_P1;HPM_P2
2021/09/14 00:00:52;;;;;;;;;;;;;;;21.97;29.37;97807.59;4922539;29;888;-81
2021/09/14 00:03:18;;;;;;;;;;;;;;;21.95;29.35;97801.56;4922782;29;904;-80
2021/09/14 00:05:43;;;;;;;;;;;;;;;22.02;29.15;97802.16;4923179;29;892;-80
2021/09/14 00:08:09;;;;;;;;;;;;;;;21.98;29.31;97803.53;4923637;29;1978;-80
2021/09/14 00:10:34;;;;;;;;;;;;;;;21.84;29.43;97802.69;4922670;29;851;-80
2021/09/14 00:12:59;;;;;;;;;;;;;;;21.89;29.47;97803.41;4923105;29;707;-81
2021/09/14 00:15:25;;;;;;;;;;;;;;;21.89;29.48;97809.06;4922688;29;928;-80
2021/09/14 00:17:51;;;;;;;;;;;;;;;21.95;29.00;97807.25;4922569;29;976;-80
2021/09/14 00:20:16;;;;;;;;;;;;;;;22.12;28.94;97811.56;4938368;29;832;-81
2021/09/14 00:22:42;;;;;;;;;;;;;;;22.05;28.92;97801.25;4923774;29;679;-80
2021/09/14 00:25:08;;;;;;;;;;;;;;;21.95;28.95;97804.41;4923597;29;704;-81
2021/09/14 00:27:33;;;;;;;;;;;;;;;21.96;29.08;97800.31;4922890;29;1902;-80
2021/09/14 00:29:59;;;;;;;;;;;;;;;21.82;29.19;97805.19;4923387;29;1067;-81
2021/09/14 00:32:24;;;;;;;;;;;;;;;21.94;29.28;97805.66;4922561;29;906;-81
2021/09/14 00:34:50;;;;;;;;;;;;;;;21.97;29.04;97799.09;4923487;29;1047;-80
2021/09/14 00:37:17;;;;;;;;;;;;;;;21.92;29.17;97805.34;4923732;29;1228;-80
2021/09/14 00:39:43;;;;;;;;;;;;;;;21.78;29.42;97798.84;4927009;29;691;-80
2021/09/14 00:42:08;;;;;;;;;;;;;;;21.74;29.29;97798.16;4926040;29;1025;-80
2021/09/14 00:44:34;;;;;;;;;;;;;;;21.77;29.18;97802.94;4926976;29;640;-80
2021/09/14 00:46:59;;;;;;;;;;;;;;;21.83;29.19;97806.00;4910343;29;1114;-81
2021/09/14 00:49:25;;;;;;;;;;;;;;;21.98;29.07;97807.13;4926380;29;1939;-80
2021/09/14 00:51:50;;;;;;;;;;;;;;;22.00;28.89;97809.50;4926643;29;1010;-80
2021/09/14 00:54:16;;;;;;;;;;;;;;;21.89;28.82;97803.41;4926074;29;783;-81
2021/09/14 00:56:42;;;;;;;;;;;;;;;22.16;29.48;97808.63;4926135;29;894;-80
2021/09/14 00:59:07;;;;;;;;;;;;;;;22.47;29.01;97803.19;4925933;29;675;-80
2021/09/14 01:01:35;;;;;;;;;;;;;;;22.45;28.69;97800.00;4893887;29;1262;-80
2021/09/14 01:04:01;;;;;;;;;;;;;;;22.10;29.28;97802.72;4910062;29;1198;-80
2021/09/14 01:06:27;;;;;;;;;;;;;;;21.98;29.03;97806.34;4925816;29;868;-80
2021/09/14 01:08:52;;;;;;;;;;;;;;;22.00;29.12;97803.84;4926391;29;1898;-80
2021/09/14 01:11:18;;;;;;;;;;;;;;;22.08;28.82;97802.38;4926387;29;694;-81
2021/09/14 01:13:43;;;;;;;;;;;;;;;22.00;29.02;97810.31;4909902;29;1234;-80
2021/09/14 01:16:12;;;;;;;;;;;;;;;21.91;29.14;97807.34;4925593;29;1326;-80
2021/09/14 01:18:39;;;;;;;;;;;;;;;21.82;29.31;97799.53;4910687;29;1182;-81
2021/09/14 01:21:06;;;;;;;;;;;;;;;21.84;29.32;97808.38;4909923;29;716;-81
2021/09/14 01:23:31;;;;;;;;;;;;;;;21.83;29.39;97801.13;4910416;29;1244;-80
2021/09/14 01:26:00;;;;;;;;;;;;;;;21.87;29.52;97805.91;4910449;29;917;-81
2021/09/14 01:28:25;;;;;;;;;;;;;;;21.78;29.24;97798.84;4925235;29;1934;-80
2021/09/14 01:30:51;;;;;;;;;;;;;;;21.91;29.02;97798.06;4925431;29;1220;-80
2021/09/14 01:33:17;;;;;;;;;;;;;;;21.88;29.14;97796.16;4941251;29;1314;-80
2021/09/14 01:35:43;;;;;;;;;;;;;;;22.27;28.99;97795.69;4926059;29;804;-81
2021/09/14 01:38:11;;;;;;;;;;;;;;;22.39;29.11;97808.31;4925489;29;1189;-80
2021/09/14 01:40:38;;;;;;;;;;;;;;;22.25;28.62;97801.03;4925530;29;1238;-80
2021/09/14 01:43:06;;;;;;;;;;;;;;;22.10;29.14;97794.22;4909130;29;1201;-80
2021/09/14 01:45:32;;;;;;;;;;;;;;;21.97;29.06;97799.09;4925116;29;1290;-80
2021/09/14 01:47:58;;;;;;;;;;;;;;;21.99;29.25;97802.28;4924937;29;1902;-80
2021/09/14 01:50:24;;;;;;;;;;;;;;;21.93;29.06;97804.09;4925804;29;648;-80
2021/09/14 01:52:50;;;;;;;;;;;;;;;22.07;28.69;97801.59;4925085;29;1180;-80
2021/09/14 01:55:19;;;;;;;;;;;;;;;21.91;29.35;97807.34;4925136;29;1309;-81
2021/09/14 01:57:48;;;;;;;;;;;;;;;21.98;28.85;97803.53;4925410;29;1302;-80
2021/09/14 02:00:20;;;;;;;;;;;;;;;21.89;29.09;97803.41;4925083;29;1162;-80
2021/09/14 02:08:37;;;;;;;;;;;;;;;21.97;28.77;97799.91;4909982;29;1983;-80
2021/09/14 02:30:10;;;;;;;;;;;;;;;21.68;29.57;97805.63;4924177;29;1467;-80
2021/09/14 02:59:35;;;;;;;;;;;;;;;22.03;29.60;97815.06;4923747;29;1268;-80
2021/09/14 03:02:01;;;;;;;;;;;;;;;22.07;29.66;97818.59;4907769;29;1270;-80
2021/09/14 03:04:27;;;;;;;;;;;;;;;22.18;29.71;97826.78;4907754;29;1284;-80
2021/09/14 03:06:53;;;;;;;;;;;;;;;22.03;29.71;97825.63;4915240;29;1090;-80
2021/09/14 03:09:29;;;;;;;;;;;;;;;22.01;29.87;97822.44;4889959;29;1966;-80
2021/09/14 03:11:55;;;;;;;;;;;;;;;21.97;29.94;97827.44;4914733;29;1310;-79
2021/09/14 03:14:21;;;;;;;;;;;;;;;22.04;29.63;97816.66;4903104;29;1237;-79
2021/09/14 03:16:47;;;;;;;;;;;;;;;21.98;30.04;97823.34;4891437;29;1437;-79
2021/09/14 03:19:13;;;;;;;;;;;;;;;21.95;30.04;97825.03;4912812;29;1261;-79
2021/09/14 03:21:39;;;;;;;;;;;;;;;21.99;29.55;97828.56;4929333;29;1334;-79
2021/09/14 03:24:08;;;;;;;;;;;;;;;21.99;29.68;97836.25;4904212;29;1369;-78
2021/09/14 03:26:33;;;;;;;;;;;;;;;22.08;29.42;97833.56;4913119;29;1207;-80
2021/09/14 03:28:59;;;;;;;;;;;;;;;22.08;29.81;97839.22;4920847;29;1965;-80
2021/09/14 03:31:27;;;;;;;;;;;;;;;22.00;29.88;97832.19;4923185;29;1581;-80
2021/09/14 03:33:54;;;;;;;;;;;;;;;21.99;29.87;97836.25;4915352;29;1085;-80
2021/09/14 03:36:20;;;;;;;;;;;;;;;22.03;29.85;97848.28;4914813;29;1078;-79
2021/09/14 03:38:48;;;;;;;;;;;;;;;22.15;29.28;97844.69;4889062;29;1205;-80
2021/09/14 03:41:14;;;;;;;;;;;;;;;22.06;29.65;97844.53;4914734;29;1217;-80
2021/09/14 03:44:11;;;;;;;;;;;;;;;22.20;29.58;97846.97;4903835;29;1203;-79
2021/09/14 03:46:50;;;;;;;;;;;;;;;22.04;29.45;97855.53;4914097;29;1142;-80
2021/09/14 03:49:16;;;;;;;;;;;;;;;22.01;29.47;97853.59;4909233;29;1903;-80
2021/09/14 03:51:42;;;;;;;;;;;;;;;21.92;29.79;97854.28;4904407;29;621;-80
2021/09/14 03:54:07;;;;;;;;;;;;;;;21.93;29.62;97866.41;4904536;29;1233;-80
2021/09/14 03:56:33;;;;;;;;;;;;;;;21.88;29.85;97864.13;4904092;29;840;-80
2021/09/14 03:59:01;;;;;;;;;;;;;;;21.89;29.68;97866.50;4904419;29;1122;-79
2021/09/14 04:01:27;;;;;;;;;;;;;;;22.17;29.24;97876.19;4888868;29;1307;-80
2021/09/14 04:04:00;;;;;;;;;;;;;;;21.99;29.74;97878.75;4888667;29;1178;-80
2021/09/14 04:09:11;;;;;;;;;;;;;;;22.06;29.68;97875.69;4904402;29;1964;-80
2021/09/14 04:11:57;;;;;;;;;;;;;;;22.01;29.69;97876.25;4904592;29;957;-81
2021/09/14 04:14:25;;;;;;;;;;;;;;;22.02;29.72;97883.50;4892305;29;846;-80
2021/09/14 04:16:52;;;;;;;;;;;;;;;21.97;29.54;97884.09;4907386;29;1299;-80
2021/09/14 04:19:19;;;;;;;;;;;;;;;21.95;29.88;97880.91;4907850;29;1533;-80
2021/09/14 04:21:46;;;;;;;;;;;;;;;22.03;29.73;97882.28;4907887;29;1285;-80
2021/09/14 04:24:17;;;;;;;;;;;;;;;21.98;29.69;97885.69;4907782;29;983;-81
2021/09/14 04:26:42;;;;;;;;;;;;;;;22.14;29.38;97894.13;4908413;29;639;-80
2021/09/14 04:29:08;;;;;;;;;;;;;;;22.25;29.54;97894.56;4907108;29;1978;-80
2021/09/14 04:31:33;;;;;;;;;;;;;;;22.05;29.96;97896.78;4907367;29;1195;-80
2021/09/14 04:33:59;;;;;;;;;;;;;;;22.07;29.69;97899.94;4907712;29;1161;-80
2021/09/14 04:36:25;;;;;;;;;;;;;;;22.21;29.38;97899.56;4907288;29;834;-80
2021/09/14 04:38:51;;;;;;;;;;;;;;;22.08;29.90;97895.91;4907279;29;1446;-80
2021/09/14 04:41:17;;;;;;;;;;;;;;;22.18;29.78;97894.00;4907579;29;1229;-80
2021/09/14 04:43:43;;;;;;;;;;;;;;;22.07;29.83;97905.63;4907229;29;1251;-80
2021/09/14 04:46:09;;;;;;;;;;;;;;;22.25;29.35;97905.13;4891532;29;1245;-80
2021/09/14 04:48:35;;;;;;;;;;;;;;;21.96;30.13;97905.16;4891777;29;1978;-80
2021/09/14 04:51:01;;;;;;;;;;;;;;;21.99;30.09;97904.25;4892006;29;1147;-80
2021/09/14 04:53:26;;;;;;;;;;;;;;;22.12;29.86;97905.09;4907600;29;1323;-80
2021/09/14 04:55:52;;;;;;;;;;;;;;;22.15;29.68;97906.25;4891575;29;1115;-80
2021/09/14 04:58:18;;;;;;;;;;;;;;;22.05;30.03;97908.91;4891318;29;1198;-80
2021/09/14 05:00:43;;;;;;;;;;;;;;;22.09;29.89;97909.59;4907114;29;1240;-80
2021/09/14 05:03:14;;;;;;;;;;;;;;;22.06;29.77;97909.69;4891855;29;1325;-80
2021/09/14 05:05:39;;;;;;;;;;;;;;;22.02;30.05;97909.00;4907189;29;1158;-80
2021/09/14 05:08:06;;;;;;;;;;;;;;;22.02;30.17;97911.84;4906707;29;1903;-80
2021/09/14 05:10:33;;;;;;;;;;;;;;;22.06;30.15;97919.00;4907226;29;1493;-80
2021/09/14 05:13:03;;;;;;;;;;;;;;;22.01;30.21;97916.72;4906479;29;995;-81
2021/09/14 05:15:29;;;;;;;;;;;;;;;22.08;30.09;97913.69;4906663;29;1138;-80
2021/09/14 05:18:32;;;;;;;;;;;;;;;22.06;29.88;97921.03;4839769;29;998;-81
2021/09/14 05:21:02;;;;;;;;;;;;;;;22.08;29.88;97912.91;4865754;29;1376;-80
2021/09/14 05:23:32;;;;;;;;;;;;;;;22.17;30.08;97917.91;4862007;29;1141;-80
2021/09/14 05:25:58;;;;;;;;;;;;;;;22.01;30.11;97918.75;4907361;29;688;-80
2021/09/14 05:28:23;;;;;;;;;;;;;;;22.17;29.98;97923.56;4906354;29;1902;-80
2021/09/14 05:30:49;;;;;;;;;;;;;;;22.07;30.26;97911.28;4890874;29;1254;-80
2021/09/14 05:33:14;;;;;;;;;;;;;;;22.12;30.25;97916.41;4906433;29;960;-80
2021/09/14 05:35:45;;;;;;;;;;;;;;;22.09;30.11;97920.94;4891089;29;1287;-80
2021/09/14 05:38:11;;;;;;;;;;;;;;;22.03;30.30;97916.28;4906371;29;664;-80
2021/09/14 05:40:36;;;;;;;;;;;;;;;22.10;30.29;97921.72;4906226;29;948;-81
2021/09/14 05:43:08;;;;;;;;;;;;;;;22.06;30.23;97924.66;4891154;29;1252;-80
2021/09/14 05:45:33;;;;;;;;;;;;;;;22.28;30.21;97922.03;4906004;29;1476;-80
2021/09/14 05:47:59;;;;;;;;;;;;;;;22.27;29.98;97926.09;4906595;29;1994;-80
2021/09/14 05:50:25;;;;;;;;;;;;;;;22.06;30.46;97926.69;4890526;29;1183;-80
2021/09/14 05:52:50;;;;;;;;;;;;;;;22.31;30.03;97926.78;4906198;29;605;-80
2021/09/14 05:55:16;;;;;;;;;;;;;;;22.24;30.22;97920.53;4890418;29;1198;-80
2021/09/14 05:57:41;;;;;;;;;;;;;;;22.29;30.23;97922.81;4905902;29;1269;-80
2021/09/14 06:00:08;;;;;;;;;;;;;;;22.30;30.22;97925.19;4906282;29;974;-80
2021/09/14 06:02:39;;;;;;;;;;;;;;;22.26;30.28;97924.50;4906640;29;1109;-80
2021/09/14 06:05:06;;;;;;;;;;;;;;;22.16;30.41;97934.13;4890389;29;1164;-80
2021/09/14 06:07:31;;;;;;;;;;;;;;;22.19;30.57;97930.41;4905880;29;1983;-80
2021/09/14 06:09:57;;;;;;;;;;;;;;;22.46;29.76;97960.38;4905782;29;657;-80
2021/09/14 06:12:24;;;;;;;;;;;;;;;22.28;30.54;97926.91;4905780;29;1206;-80
2021/09/14 06:14:49;;;;;;;;;;;;;;;22.26;30.21;97930.16;4889970;29;1153;-80
2021/09/14 06:17:15;;;;;;;;;;;;;;;22.23;30.25;97931.09;4890136;29;1236;-80
2021/09/14 06:19:42;;;;;;;;;;;;;;;22.29;30.56;97929.28;4905846;29;1286;-80
2021/09/14 06:22:08;;;;;;;;;;;;;;;22.32;30.54;97934.03;4890279;29;1299;-80
2021/09/14 06:24:33;;;;;;;;;;;;;;;22.21;30.39;97939.22;4905695;29;1297;-80
2021/09/14 06:26:59;;;;;;;;;;;;;;;22.20;30.58;97937.66;4905300;29;1156;-80
2021/09/14 06:29:25;;;;;;;;;;;;;;;22.18;30.55;97939.34;4905297;29;1966;-80
2021/09/14 06:31:52;;;;;;;;;;;;;;;22.08;30.83;97935.56;4894447;29;1453;-80
2021/09/14 06:34:36;;;;;;;;;;;;;;;22.17;30.89;97935.69;4888648;29;633;-80
2021/09/14 06:37:02;;;;;;;;;;;;;;;22.25;30.69;97951.25;4886274;29;1039;-80
2021/09/14 06:39:28;;;;;;;;;;;;;;;22.28;30.73;97944.69;4902062;29;1199;-80
2021/09/14 06:41:54;;;;;;;;;;;;;;;22.14;30.72;97942.28;4886056;29;1152;-78
2021/09/14 06:44:23;;;;;;;;;;;;;;;22.19;30.87;97944.56;4871096;29;1361;-79
2021/09/14 06:46:54;;;;;;;;;;;;;;;22.23;30.64;97945.25;4886375;29;1201;-79
2021/09/14 06:49:20;;;;;;;;;;;;;;;22.28;30.94;97949.56;4885790;29;1985;-79
2021/09/14 06:51:46;;;;;;;;;;;;;;;22.24;31.10;97944.00;4886754;29;652;-79
2021/09/14 06:54:11;;;;;;;;;;;;;;;22.21;31.04;97947.72;4886052;29;601;-79
2021/09/14 06:56:37;;;;;;;;;;;;;;;22.26;30.64;97950.00;4885548;29;1085;-79
2021/09/14 06:59:02;;;;;;;;;;;;;;;22.20;30.93;97951.81;4886287;29;909;-80
2021/09/14 07:01:28;;;;;;;;;;;;;;;22.28;30.97;97955.25;4885938;29;1033;-79
2021/09/14 07:03:54;;;;;;;;;;;;;;;22.17;31.02;97954.75;4886657;29;848;-80
2021/09/14 07:06:19;;;;;;;;;;;;;;;22.41;30.62;97963.75;4886482;29;648;-79
2021/09/14 07:08:46;;;;;;;;;;;;;;;22.44;30.55;97965.72;4886314;29;1970;-80
2021/09/14 07:11:12;;;;;;;;;;;;;;;22.35;30.63;97963.53;4886153;29;862;-79
2021/09/14 07:13:37;;;;;;;;;;;;;;;22.46;30.58;97966.03;4886002;29;893;-79
2021/09/14 07:16:03;;;;;;;;;;;;;;;22.39;30.59;97964.22;4886215;29;967;-79
2021/09/14 07:18:28;;;;;;;;;;;;;;;22.44;30.74;97957.19;4885629;29;1330;-79
2021/09/14 07:20:53;;;;;;;;;;;;;;;22.30;31.20;97970.53;4886292;29;720;-79
2021/09/14 07:23:20;;;;;;;;;;;;;;;22.42;30.63;97965.34;4886268;29;716;-80
2021/09/14 07:25:46;;;;;;;;;;;;;;;22.39;30.92;97969.09;4885958;29;1011;-79
2021/09/14 07:28:11;;;;;;;;;;;;;;;22.42;30.84;97968.19;4885234;29;1972;-79
2021/09/14 07:30:37;;;;;;;;;;;;;;;22.36;31.14;97974.41;4885368;29;952;-80
2021/09/14 07:33:02;;;;;;;;;;;;;;;22.47;30.88;97973.28;4886046;29;664;-79
2021/09/14 07:35:30;;;;;;;;;;;;;;;22.44;31.16;97974.22;4885660;29;646;-79
2021/09/14 07:37:55;;;;;;;;;;;;;;;22.48;31.08;97972.03;4886182;29;603;-79
2021/09/14 07:40:21;;;;;;;;;;;;;;;22.49;31.12;97982.16;4885067;29;954;-79
2021/09/14 07:42:46;;;;;;;;;;;;;;;22.33;31.34;97981.00;4885630;29;1125;-79
2021/09/14 07:45:12;;;;;;;;;;;;;;;22.48;30.96;97972.81;4886113;29;1066;-79
2021/09/14 07:47:37;;;;;;;;;;;;;;;22.40;31.37;97967.84;4888780;29;1907;-79
2021/09/14 07:50:03;;;;;;;;;;;;;;;22.39;31.11;97983.28;4889217;29;699;-79
2021/09/14 07:52:29;;;;;;;;;;;;;;;22.50;31.27;97980.91;4889918;29;620;-79
2021/09/14 07:54:54;;;;;;;;;;;;;;;22.54;31.07;97978.75;4889500;29;942;-80
2021/09/14 07:57:20;;;;;;;;;;;;;;;22.46;31.18;97972.50;4889526;29;919;-79
2021/09/14 07:59:45;;;;;;;;;;;;;;;22.42;31.23;97976.69;4889767;29;1094;-80
2021/09/14 08:02:10;;;;;;;;;;;;;;;22.47;31.13;97974.06;4889681;29;636;-79
2021/09/14 08:04:36;;;;;;;;;;;;;;;22.40;31.09;97973.50;4889640;29;656;-79
2021/09/14 08:07:03;;;;;;;;;;;;;;;22.36;31.26;97973.63;4889563;29;650;-79
2021/09/14 08:09:29;;;;;;;;;;;;;;;22.43;30.82;97966.94;4888696;29;1899;-79
2021/09/14 08:11:55;;;;;;;;;;;;;;;22.41;30.77;97970.22;4889178;29;935;-79
2021/09/14 08:14:21;;;;;;;;;;;;;;;22.54;30.67;97973.09;4888424;29;920;-80
2021/09/14 08:16:46;;;;;;;;;;;;;;;22.43;30.88;97979.06;4889754;29;702;-79
2021/09/14 08:19:12;;;;;;;;;;;;;;;22.36;30.81;97971.56;4889720;29;748;-79
2021/09/14 08:21:37;;;;;;;;;;;;;;;22.19;31.12;97978.56;4889340;29;676;-80
2021/09/14 08:24:03;;;;;;;;;;;;;;;22.26;30.89;97969.84;4888121;29;903;-79
2021/09/14 08:26:28;;;;;;;;;;;;;;;22.24;31.15;97978.03;4889096;29;832;-80
2021/09/14 08:28:54;;;;;;;;;;;;;;;22.22;31.10;97980.50;4889049;29;1978;-79
2021/09/14 08:31:24;;;;;;;;;;;;;;;22.48;30.58;97970.00;4888486;29;1315;-79
2021/09/14 08:33:49;;;;;;;;;;;;;;;22.40;31.06;97979.97;4889105;29;656;-79
2021/09/14 08:36:15;;;;;;;;;;;;;;;22.51;30.66;97969.09;4889152;29;645;-79
2021/09/14 08:38:40;;;;;;;;;;;;;;;22.41;30.64;97969.44;4888698;29;988;-79
2021/09/14 08:41:06;;;;;;;;;;;;;;;22.54;30.83;97967.41;4888967;29;917;-79
2021/09/14 08:43:31;;;;;;;;;;;;;;;22.47;30.75;97967.63;4888847;29;1063;-79
2021/09/14 08:45:57;;;;;;;;;;;;;;;22.35;30.81;97972.03;4888486;29;653;-79
2021/09/14 08:48:23;;;;;;;;;;;;;;;22.49;30.63;97968.78;4888818;29;1915;-79
2021/09/14 08:50:48;;;;;;;;;;;;;;;22.45;30.97;97967.28;4888663;29;625;-76
2021/09/14 08:53:13;;;;;;;;;;;;;;;22.55;31.10;97971.84;4889077;29;941;-79
2021/09/14 08:55:39;;;;;;;;;;;;;;;22.48;31.17;97964.31;4888644;29;889;-79
2021/09/14 08:58:08;;;;;;;;;;;;;;;22.36;31.19;97957.41;4887612;29;929;-79
2021/09/14 09:00:37;;;;;;;;;;;;;;;22.48;30.96;97972.03;4888836;29;704;-80
2021/09/14 09:03:02;;;;;;;;;;;;;;;22.54;30.71;97961.75;4888080;29;643;-80
2021/09/14 09:05:38;;;;;;;;;;;;;;;22.44;30.92;97968.53;4887828;29;757;-79
2021/09/14 09:08:15;;;;;;;;;;;;;;;22.57;30.76;97960.81;4887521;29;1904;-80
2021/09/14 09:10:40;;;;;;;;;;;;;;;22.65;30.39;97962.19;4887409;29;968;-79
2021/09/14 09:13:06;;;;;;;;;;;;;;;22.44;30.42;97965.72;4888459;29;582;-79
2021/09/14 09:15:33;;;;;;;;;;;;;;;22.44;30.58;97957.19;4888520;29;679;-79
2021/09/14 09:18:11;;;;;;;;;;;;;;;22.44;30.44;97957.19;4888443;29;704;-79
2021/09/14 09:20:37;;;;;;;;;;;;;;;22.48;30.50;97960.69;4888611;29;682;-79
2021/09/14 09:23:13;;;;;;;;;;;;;;;22.61;30.36;97962.31;4888807;29;881;-81
2021/09/14 09:25:38;;;;;;;;;;;;;;;22.53;30.58;97968.63;4887387;29;901;-80
2021/09/14 09:28:08;;;;;;;;;;;;;;;22.52;30.38;97961.38;4887394;29;1883;-80
2021/09/14 09:30:36;;;;;;;;;;;;;;;22.53;30.33;97954.47;4886951;29;879;-79
2021/09/14 09:33:03;;;;;;;;;;;;;;;22.39;30.60;97960.59;4887500;29;717;-79
2021/09/14 09:35:30;;;;;;;;;;;;;;;22.61;30.28;97956.63;4887604;29;584;-80
2021/09/14 09:37:56;;;;;;;;;;;;;;;22.47;30.22;97967.63;4887104;29;917;-79
2021/09/14 09:40:30;;;;;;;;;;;;;;;22.49;30.22;97965.16;4887026;29;919;-79
2021/09/14 09:42:56;;;;;;;;;;;;;;;22.59;29.89;97959.13;4887753;29;1066;-80
2021/09/14 09:45:21;;;;;;;;;;;;;;;22.53;29.91;97960.94;4887291;29;629;-79
2021/09/14 09:47:47;;;;;;;;;;;;;;;22.42;30.32;97954.78;4887773;29;1931;-79
2021/09/14 09:50:13;;;;;;;;;;;;;;;22.29;30.53;97954.78;4887096;29;700;-79
2021/09/14 09:52:38;;;;;;;;;;;;;;;22.40;30.17;97956.50;4887732;29;1003;-79
2021/09/14 09:55:04;;;;;;;;;;;;;;;22.39;30.45;97961.38;4886707;29;919;-79
2021/09/14 09:57:29;;;;;;;;;;;;;;;22.46;30.39;97966.81;4886962;29;1092;-79
2021/09/14 09:59:55;;;;;;;;;;;;;;;22.61;29.92;97955.84;4886951;29;681;-79
2021/09/14 10:02:21;;;;;;;;;;;;;;;22.49;29.89;97950.97;4887747;29;831;-79
2021/09/14 10:05:05;;;;;;;;;;;;;;;22.52;30.07;97944.38;4887508;29;569;-79
2021/09/14 10:07:31;;;;;;;;;;;;;;;22.56;29.95;97953.56;4886575;29;1907;-79
2021/09/14 10:09:57;;;;;;;;;;;;;;;22.39;30.25;97949.25;4886251;29;1004;-79
2021/09/14 10:12:30;;;;;;;;;;;;;;;22.32;30.72;97953.06;4886747;29;700;-79
2021/09/14 10:14:59;;;;;;;;;;;;;;;22.30;30.28;97947.06;4923936;29;1398;-80
2021/09/14 10:17:26;;;;;;;;;;;;;;;22.43;30.21;97949.91;4925032;29;643;-80
2021/09/14 10:19:51;;;;;;;;;;;;;;;22.51;29.89;97942.78;4924716;29;971;-80
2021/09/14 10:22:22;;;;;;;;;;;;;;;22.53;30.08;97948.78;4908015;29;969;-80
2021/09/14 10:24:51;;;;;;;;;;;;;;;22.51;30.02;97946.41;4924120;29;952;-81
2021/09/14 10:27:17;;;;;;;;;;;;;;;22.57;30.06;97949.47;4924125;29;722;-80
2021/09/14 10:29:42;;;;;;;;;;;;;;;22.49;30.16;97946.09;4924686;29;1895;-80
2021/09/14 10:32:20;;;;;;;;;;;;;;;22.51;30.05;97948.47;4924778;29;711;-80
2021/09/14 10:34:52;;;;;;;;;;;;;;;22.53;30.08;97943.13;4923722;29;968;-80
2021/09/14 10:37:18;;;;;;;;;;;;;;;22.47;30.10;97936.44;4924249;29;883;-80
2021/09/14 10:39:44;;;;;;;;;;;;;;;22.48;29.79;97929.50;4924481;29;679;-80
2021/09/14 10:42:12;;;;;;;;;;;;;;;22.54;30.03;97944.72;4923731;29;1071;-80
2021/09/14 10:44:38;;;;;;;;;;;;;;;22.39;30.07;97943.59;4924864;29;641;-80
2021/09/14 10:47:10;;;;;;;;;;;;;;;22.46;29.93;97946.19;4924479;29;739;-80
2021/09/14 10:49:57;;;;;;;;;;;;;;;22.34;30.35;97942.88;4923328;29;1907;-80
2021/09/14 10:52:30;;;;;;;;;;;;;;;22.34;30.21;97937.22;4923308;29;920;-80
2021/09/14 10:54:56;;;;;;;;;;;;;;;22.43;30.14;97932.91;4924385;29;711;-80
2021/09/14 10:57:30;;;;;;;;;;;;;;;22.51;30.09;97937.13;4924231;29;697;-80
2021/09/14 10:59:55;;;;;;;;;;;;;;;22.45;30.02;97936.09;4923497;29;621;-80
2021/09/14 11:02:25;;;;;;;;;;;;;;;22.33;30.40;97932.81;4924157;29;704;-80
2021/09/14 11:04:50;;;;;;;;;;;;;;;22.29;30.39;97943.44;4923369;29;900;-80
2021/09/14 11:07:17;;;;;;;;;;;;;;;22.43;30.27;97941.41;4923150;29;968;-80
2021/09/14 11:09:43;;;;;;;;;;;;;;;22.55;30.05;97943.47;4923900;29;1907;-80
2021/09/14 11:12:38;;;;;;;;;;;;;;;22.57;29.95;97941.75;4924079;29;644;-80
2021/09/14 11:15:04;;;;;;;;;;;;;;;22.56;29.71;97947.91;4915721;29;1150;-80
2021/09/14 11:17:31;;;;;;;;;;;;;;;22.46;30.17;97937.69;4923339;29;724;-80
2021/09/14 11:20:07;;;;;;;;;;;;;;;22.42;30.10;97937.78;4923677;29;959;-80
2021/09/14 11:22:33;;;;;;;;;;;;;;;22.51;29.75;97934.28;4922481;29;983;-80
2021/09/14 11:24:59;;;;;;;;;;;;;;;22.47;30.02;97933.59;4923162;29;1082;-80
2021/09/14 11:27:24;;;;;;;;;;;;;;;22.43;30.00;97933.69;4923306;29;676;-80
2021/09/14 11:29:50;;;;;;;;;;;;;;;22.57;30.00;97932.47;4923065;29;1915;-80
2021/09/14 11:32:15;;;;;;;;;;;;;;;22.61;29.95;97922.59;4923159;29;767;-80
2021/09/14 11:34:41;;;;;;;;;;;;;;;22.40;30.12;97926.13;4922903;29;979;-80
2021/09/14 11:37:06;;;;;;;;;;;;;;;22.34;30.40;97919.41;4922901;29;921;-80
2021/09/14 11:39:38;;;;;;;;;;;;;;;22.41;30.22;97924.06;4922951;29;794;-80
2021/09/14 11:42:04;;;;;;;;;;;;;;;22.36;30.01;97923.38;4922931;29;1011;-80
2021/09/14 11:44:29;;;;;;;;;;;;;;;22.41;30.11;97924.06;4907352;29;1505;-80
2021/09/14 11:46:55;;;;;;;;;;;;;;;22.41;30.22;97921.22;4924132;29;714;-80
2021/09/14 11:49:30;;;;;;;;;;;;;;;22.41;30.22;97912.72;4922458;29;1902;-80
2021/09/14 11:51:59;;;;;;;;;;;;;;;22.57;29.89;97915.44;4923291;29;983;-80
2021/09/14 11:54:26;;;;;;;;;;;;;;;22.59;30.03;97907.31;4907161;29;929;-80
2021/09/14 11:56:56;;;;;;;;;;;;;;;22.53;30.03;97909.88;4923033;29;866;-80
2021/09/14 11:59:22;;;;;;;;;;;;;;;22.35;30.41;97910.47;4922935;29;756;-80
2021/09/14 12:01:47;;;;;;;;;;;;;;;22.43;30.14;97915.91;4923856;29;760;-80
2021/09/14 12:04:16;;;;;;;;;;;;;;;22.34;30.38;97917.38;4922493;29;1279;-80
2021/09/14 12:06:48;;;;;;;;;;;;;;;22.48;30.19;97916.13;4922556;29;885;-80
2021/09/14 12:09:13;;;;;;;;;;;;;;;22.61;29.84;97916.13;4922800;29;1903;-80
2021/09/14 12:11:39;;;;;;;;;;;;;;;22.49;30.31;97916.94;4923449;29;672;-80
2021/09/14 12:14:06;;;;;;;;;;;;;;;22.44;30.37;97920.34;4923413;29;711;-80
2021/09/14 12:16:32;;;;;;;;;;;;;;;22.44;30.07;97909.78;4906950;29;1251;-80
2021/09/14 12:18:58;;;;;;;;;;;;;;;22.45;29.90;97902.06;4923230;29;912;-80
2021/09/14 12:21:24;;;;;;;;;;;;;;;22.63;30.01;97913.63;4906749;29;961;-80
2021/09/14 12:23:49;;;;;;;;;;;;;;;22.51;30.09;97922.94;4923288;29;957;-80
2021/09/14 12:26:15;;;;;;;;;;;;;;;22.54;30.16;97917.16;4922689;29;612;-80
2021/09/14 12:28:41;;;;;;;;;;;;;;;22.43;30.29;97924.41;4922392;29;1888;-81
2021/09/14 12:31:07;;;;;;;;;;;;;;;22.51;29.88;97908.75;4922698;29;664;-82
2021/09/14 12:33:32;;;;;;;;;;;;;;;22.47;30.10;97910.91;4923241;29;997;-80
2021/09/14 12:35:58;;;;;;;;;;;;;;;22.39;30.33;97916.03;4926912;29;900;-81
2021/09/14 12:38:23;;;;;;;;;;;;;;;22.50;29.95;97915.69;4926430;29;1083;-82
2021/09/14 12:40:49;;;;;;;;;;;;;;;22.38;30.26;97919.28;4926164;29;645;-81
2021/09/14 12:43:14;;;;;;;;;;;;;;;22.39;30.09;97915.22;4910196;29;1121;-81
2021/09/14 12:45:40;;;;;;;;;;;;;;;22.40;30.31;97922.50;4927072;29;699;-81
2021/09/14 12:48:05;;;;;;;;;;;;;;;22.45;30.21;97919.09;4909755;29;1907;-81
2021/09/14 12:50:31;;;;;;;;;;;;;;;22.46;30.01;97920.66;4910270;29;908;-82
2021/09/14 12:52:56;;;;;;;;;;;;;;;22.48;29.89;97918.16;4926659;29;1022;-81
2021/09/14 12:55:23;;;;;;;;;;;;;;;22.56;30.13;97919.53;4910073;29;661;-82
2021/09/14 12:57:48;;;;;;;;;;;;;;;22.59;29.90;97924.31;4925910;29;707;-81
2021/09/14 13:00:14;;;;;;;;;;;;;;;22.53;30.04;97923.28;4926683;29;836;-82
2021/09/14 13:02:40;;;;;;;;;;;;;;;22.50;30.19;97910.00;4926452;29;663;-82
2021/09/14 13:05:06;;;;;;;;;;;;;;;22.45;30.16;97913.41;4925455;29;992;-81
2021/09/14 13:07:31;;;;;;;;;;;;;;;22.55;29.97;97913.06;4926228;29;948;-82
2021/09/14 13:09:57;;;;;;;;;;;;;;;22.60;29.83;97914.56;4925367;29;1972;-82
2021/09/14 13:12:28;;;;;;;;;;;;;;;22.67;29.48;97908.63;4925803;29;613;-82
2021/09/14 13:17:37;;;;;;;;;;;;;;;22.50;29.82;97907.19;4925605;29;648;-82
2021/09/14 13:20:03;;;;;;;;;;;;;;;22.49;29.99;97920.56;4925162;29;980;-81
2021/09/14 13:22:28;;;;;;;;;;;;;;;22.46;29.77;97909.34;4925906;29;1018;-82
2021/09/14 13:24:54;;;;;;;;;;;;;;;22.44;30.15;97911.84;4926168;29;920;-82
2021/09/14 13:27:25;;;;;;;;;;;;;;;22.40;30.08;97914.78;4925365;29;627;-80
2021/09/14 13:29:51;;;;;;;;;;;;;;;22.34;30.32;97908.09;4925017;29;1962;-82
2021/09/14 13:32:16;;;;;;;;;;;;;;;22.38;30.21;97916.47;4925287;29;928;-82
2021/09/14 13:34:42;;;;;;;;;;;;;;;22.51;29.78;97911.59;4924965;29;984;-81
2021/09/14 13:37:07;;;;;;;;;;;;;;;22.55;29.51;97912.28;4925182;29;879;-81
2021/09/14 13:39:34;;;;;;;;;;;;;;;22.58;29.52;97911.38;4925772;29;653;-81
2021/09/14 13:41:59;;;;;;;;;;;;;;;22.63;29.48;97907.97;4925167;29;1008;-82
2021/09/14 13:46:54;;;;;;;;;;;;;;;22.45;29.64;97904.91;4925068;29;676;-81
2021/09/14 13:49:19;;;;;;;;;;;;;;;22.67;29.22;97902.97;4924939;29;1903;-82
2021/09/14 13:51:45;;;;;;;;;;;;;;;22.45;29.71;97913.41;4925283;29;1022;-82
2021/09/14 13:54:10;;;;;;;;;;;;;;;22.43;29.92;97905.34;4924705;29;890;-81
2021/09/14 13:56:36;;;;;;;;;;;;;;;22.45;29.62;97899.25;4924867;29;1004;-81
2021/09/14 13:59:01;;;;;;;;;;;;;;;22.43;29.84;97907.38;4909067;29;828;-81
2021/09/14 14:01:27;;;;;;;;;;;;;;;22.45;29.55;97905.69;4893655;29;918;-80